createdAt,value
2018-09-19T00:01:06.586Z,18.80
2018-09-19T00:03:35.142Z,18.80
2018-09-19T00:06:03.722Z,18.70
2018-09-19T00:08:32.294Z,18.60
2018-09-19T00:11:00.828Z,18.60
2018-09-19T00:13:29.379Z,18.70
2018-09-19T00:15:57.923Z,18.70
2018-09-19T00:18:26.488Z,18.70
2018-09-19T00:20:55.002Z,18.70
2018-09-19T00:23:23.528Z,18.70
2018-09-19T00:25:52.065Z,18.60
2018-09-19T00:28:20.615Z,18.50
2018-09-19T00:30:49.168Z,18.50
2018-09-19T00:33:17.737Z,18.40
2018-09-19T04:53:34.139Z,17.80
2018-09-19T04:56:02.678Z,17.80
2018-09-19T04:58:31.206Z,16.20
2018-09-19T05:00:59.738Z,16.30
2018-09-19T05:03:28.255Z,16.50
2018-09-19T05:05:56.795Z,16.60
2018-09-19T05:08:25.353Z,16.50
2018-09-19T05:10:53.942Z,16.50
2018-09-19T05:13:22.496Z,16.60
2018-09-19T05:15:51.098Z,16.60
2018-09-19T05:18:19.682Z,16.50
2018-09-19T05:20:48.212Z,16.50
2018-09-19T05:23:16.777Z,16.50
2018-09-19T05:25:45.391Z,16.60
2018-09-19T05:28:13.950Z,16.70
2018-09-19T05:30:42.489Z,16.70
2018-09-19T05:33:11.047Z,16.80
2018-09-19T05:35:39.587Z,16.80
2018-09-19T05:38:08.354Z,16.80
2018-09-19T05:40:36.967Z,16.80
2018-09-19T05:43:05.565Z,16.90
2018-09-19T05:45:34.105Z,16.90
2018-09-19T05:48:02.657Z,17.00
2018-09-19T05:50:31.184Z,17.00
2018-09-19T05:52:59.722Z,17.00
2018-09-19T05:55:28.305Z,17.20
2018-09-19T05:57:56.869Z,17.30
2018-09-19T06:00:25.417Z,17.30
2018-09-19T06:02:53.977Z,17.40
2018-09-19T06:05:22.493Z,17.40
2018-09-19T06:07:51.029Z,17.50
2018-09-19T06:10:19.584Z,17.60
2018-09-19T06:12:48.213Z,17.70
2018-09-19T06:15:16.745Z,17.90
2018-09-19T06:17:45.383Z,17.90
2018-09-19T06:20:13.918Z,18.10
2018-09-19T06:22:42.426Z,18.10
2018-09-19T06:25:10.954Z,18.20
2018-09-19T06:27:39.494Z,18.30
2018-09-19T06:30:08.096Z,18.40
2018-09-19T06:32:36.671Z,18.60
2018-09-19T06:35:06.000Z,18.60
2018-09-19T06:37:34.571Z,18.70
2018-09-19T06:40:03.201Z,18.80
2018-09-19T06:42:31.712Z,19.00
2018-09-19T06:45:00.341Z,19.00
2018-09-19T06:47:28.937Z,19.00
2018-09-19T06:49:57.536Z,19.00
2018-09-19T06:52:26.124Z,19.10
2018-09-19T06:54:54.622Z,19.10
2018-09-19T06:57:23.167Z,19.30
2018-09-19T06:59:51.737Z,19.30
2018-09-19T07:02:20.465Z,19.40
2018-09-19T07:04:49.035Z,19.40
2018-09-19T07:07:17.572Z,19.30
2018-09-19T07:09:46.101Z,19.30
2018-09-19T07:12:14.625Z,19.30
2018-09-19T07:14:43.258Z,19.30
2018-09-19T07:17:11.789Z,19.40
2018-09-19T07:19:40.366Z,19.40
2018-09-19T07:22:09.006Z,19.40
2018-09-19T07:24:37.573Z,19.40
2018-09-19T07:27:06.168Z,19.40
2018-09-19T07:29:34.719Z,19.40
2018-09-19T07:32:03.275Z,19.40
2018-09-19T07:34:31.788Z,19.50
2018-09-19T07:37:00.329Z,19.50
2018-09-19T07:39:28.849Z,19.50
2018-09-19T07:41:57.380Z,19.60
2018-09-19T07:44:25.898Z,19.70
2018-09-19T07:46:54.433Z,19.90
2018-09-19T07:49:23.011Z,20.20
2018-09-19T07:51:51.625Z,20.50
2018-09-19T07:54:20.177Z,20.70
2018-09-19T07:56:48.759Z,20.80
2018-09-19T07:59:17.299Z,20.90
2018-09-19T08:01:45.830Z,20.90
2018-09-19T08:04:14.367Z,20.80
2018-09-19T08:06:42.916Z,20.90
2018-09-19T08:09:11.548Z,20.80
2018-09-19T08:11:40.053Z,20.80
2018-09-19T08:14:08.573Z,20.90
2018-09-19T08:16:37.124Z,20.90
2018-09-19T08:19:05.682Z,20.90
2018-09-19T08:21:34.199Z,21.00
2018-09-19T08:24:02.720Z,21.00
2018-09-19T08:26:31.283Z,21.10
2018-09-19T08:28:59.797Z,21.10
2018-09-19T08:31:28.332Z,21.20
2018-09-19T08:33:56.862Z,21.30
2018-09-19T08:36:25.392Z,21.50
2018-09-19T08:38:53.953Z,21.70
2018-09-19T08:41:22.500Z,21.80
2018-09-19T08:43:51.042Z,21.90
2018-09-19T08:46:19.576Z,21.90
2018-09-19T08:48:48.331Z,22.00
2018-09-19T08:51:16.930Z,22.10
2018-09-19T08:53:45.464Z,22.10
2018-09-19T08:56:13.988Z,22.10
2018-09-19T08:58:42.541Z,22.00
2018-09-19T09:01:11.058Z,22.00
2018-09-19T09:03:39.608Z,21.90
2018-09-19T09:06:08.150Z,21.90
2018-09-19T09:08:36.764Z,21.90
2018-09-19T09:11:05.460Z,21.90
2018-09-19T09:13:34.060Z,21.90
2018-09-19T09:16:02.624Z,21.90
2018-09-19T09:18:31.156Z,21.90
2018-09-19T09:20:59.708Z,21.90
2018-09-19T09:23:28.245Z,21.90
2018-09-19T09:25:56.887Z,21.90
2018-09-19T09:28:25.417Z,21.90
2018-09-19T09:30:53.921Z,21.90
2018-09-19T09:33:22.472Z,21.90
2018-09-19T09:35:51.044Z,22.00
2018-09-19T09:38:19.568Z,22.00
2018-09-19T09:40:48.126Z,22.00
2018-09-19T09:43:16.684Z,22.00
2018-09-19T09:45:45.261Z,22.00
2018-09-19T09:48:13.847Z,22.30
2018-09-19T09:50:42.391Z,22.70
2018-09-19T09:53:10.999Z,23.10
2018-09-19T09:55:39.514Z,23.50
2018-09-19T09:58:08.012Z,23.60
2018-09-19T10:00:41.578Z,23.60
2018-09-19T10:03:11.200Z,23.60
2018-09-19T10:05:39.955Z,23.60
2018-09-19T10:08:08.489Z,23.60
2018-09-19T10:10:37.636Z,23.60
2018-09-19T10:13:06.184Z,23.60
2018-09-19T10:15:34.916Z,23.60
2018-09-19T10:18:03.538Z,23.70
2018-09-19T10:20:32.140Z,23.80
2018-09-19T10:23:00.707Z,23.80
2018-09-19T10:25:29.232Z,24.00
2018-09-19T10:27:57.736Z,24.30
2018-09-19T10:30:26.332Z,24.40
2018-09-19T10:32:54.875Z,24.50
2018-09-19T10:35:23.489Z,24.60
2018-09-19T10:37:52.050Z,24.60
2018-09-19T10:40:20.589Z,24.60
2018-09-19T10:42:49.119Z,24.70
2018-09-19T10:45:17.648Z,24.90
2018-09-19T10:47:46.232Z,25.10
2018-09-19T10:50:14.787Z,25.50
2018-09-19T10:52:43.329Z,25.80
2018-09-19T10:55:11.914Z,26.00
2018-09-19T10:57:40.479Z,26.00
2018-09-19T11:00:09.066Z,25.80
2018-09-19T11:02:37.927Z,25.90
2018-09-19T11:05:06.501Z,25.90
2018-09-19T11:07:35.049Z,26.00
2018-09-19T11:10:03.634Z,26.10
2018-09-19T11:12:32.169Z,26.10
2018-09-19T11:15:00.792Z,26.40
2018-09-19T11:17:29.311Z,26.50
2018-09-19T11:19:57.851Z,26.80
2018-09-19T11:22:26.375Z,26.80
2018-09-19T11:24:54.971Z,27.00
2018-09-19T11:27:23.527Z,26.90
2018-09-19T11:29:52.132Z,27.10
2018-09-19T11:32:20.656Z,27.20
2018-09-19T11:34:49.171Z,27.30
2018-09-19T11:37:17.711Z,27.40
2018-09-19T11:39:46.244Z,27.50
2018-09-19T11:42:14.773Z,27.50
2018-09-19T11:44:43.394Z,27.60
2018-09-19T11:47:11.915Z,27.90
2018-09-19T11:49:40.484Z,28.00
2018-09-19T11:52:09.023Z,28.10
2018-09-19T11:54:37.549Z,28.30
2018-09-19T11:57:06.125Z,28.30
2018-09-19T11:59:34.644Z,28.20
2018-09-19T12:02:03.247Z,28.20
2018-09-19T12:04:31.780Z,28.00
2018-09-19T12:07:00.339Z,27.90
2018-09-19T12:09:28.877Z,27.90
2018-09-19T12:11:57.396Z,28.00
2018-09-19T12:14:25.913Z,28.20
2018-09-19T12:16:54.465Z,28.40
2018-09-19T12:19:23.099Z,28.70
2018-09-19T12:21:51.615Z,28.80
2018-09-19T12:24:20.107Z,28.70
2018-09-19T12:26:48.651Z,28.90
2018-09-19T12:29:17.270Z,28.90
2018-09-19T12:31:45.808Z,28.50
2018-09-19T12:34:14.328Z,28.30
2018-09-19T12:36:42.862Z,28.40
2018-09-19T12:39:12.019Z,28.60
2018-09-19T12:41:40.726Z,28.90
2018-09-19T12:44:09.443Z,28.80
2018-09-19T12:46:38.052Z,28.80
2018-09-19T12:49:06.746Z,29.00
2018-09-19T12:51:35.316Z,28.90
2018-09-19T12:54:03.865Z,29.10
2018-09-19T12:56:32.485Z,29.30
2018-09-19T12:59:01.101Z,29.40
2018-09-19T13:01:29.643Z,29.50
2018-09-19T13:03:58.244Z,29.40
2018-09-19T13:06:26.827Z,29.50
2018-09-19T13:08:55.360Z,29.50
2018-09-19T13:11:23.915Z,29.50
2018-09-19T13:13:52.455Z,29.30
2018-09-19T13:16:20.979Z,29.40
2018-09-19T13:18:49.550Z,29.50
2018-09-19T13:21:18.097Z,29.20
2018-09-19T13:23:46.640Z,29.10
2018-09-19T13:26:15.186Z,29.00
2018-09-19T13:28:43.723Z,29.10
2018-09-19T13:31:12.253Z,29.00
2018-09-19T13:33:40.808Z,29.10
2018-09-19T13:36:09.361Z,29.10
2018-09-19T13:38:37.912Z,29.10
2018-09-19T13:41:06.523Z,29.10
2018-09-19T13:43:35.113Z,29.20
2018-09-19T13:46:03.706Z,29.10
2018-09-19T13:48:32.275Z,29.10
2018-09-19T13:51:09.854Z,29.10
2018-09-19T13:53:38.481Z,29.20
2018-09-19T13:56:07.037Z,29.30
2018-09-19T13:58:35.600Z,29.40
2018-09-19T14:01:04.158Z,29.40
2018-09-19T14:03:32.689Z,29.40
2018-09-19T14:06:01.253Z,29.20
2018-09-19T14:08:29.791Z,29.00
2018-09-19T14:10:58.378Z,29.00
2018-09-19T14:13:26.900Z,29.00
2018-09-19T14:15:55.449Z,28.90
2018-09-19T14:18:23.995Z,28.80
2018-09-19T14:20:52.544Z,28.70
2018-09-19T14:23:21.137Z,28.50
2018-09-19T14:25:49.677Z,28.40
2018-09-19T14:28:18.220Z,28.30
2018-09-19T14:30:46.794Z,28.30
2018-09-19T14:33:15.411Z,28.30
2018-09-19T14:35:43.950Z,28.30
2018-09-19T14:38:13.153Z,28.40
2018-09-19T14:40:41.710Z,28.50
2018-09-19T14:43:10.264Z,28.50
2018-09-19T14:45:38.859Z,28.60
2018-09-19T14:48:07.411Z,28.60
2018-09-19T14:50:35.949Z,28.70
2018-09-19T14:53:04.489Z,28.70
2018-09-19T14:55:33.084Z,28.60
2018-09-19T14:58:01.645Z,28.70
2018-09-19T15:00:30.187Z,28.60
2018-09-19T15:02:58.731Z,28.60
2018-09-19T15:05:27.271Z,28.60
2018-09-19T15:07:55.876Z,28.60
2018-09-19T15:10:24.409Z,28.60
2018-09-19T15:12:52.912Z,28.60
2018-09-19T15:15:21.492Z,28.50
2018-09-19T15:17:50.039Z,28.50
2018-09-19T15:20:18.581Z,28.40
2018-09-19T15:22:47.103Z,28.40
2018-09-19T15:25:15.832Z,28.20
2018-09-19T15:27:44.391Z,28.20
2018-09-19T15:30:12.958Z,28.10
2018-09-19T15:32:41.542Z,28.10
2018-09-19T15:35:10.761Z,28.00
2018-09-19T15:37:39.364Z,27.90
2018-09-19T15:40:08.047Z,27.80
2018-09-19T15:42:36.684Z,27.60
2018-09-19T15:45:05.378Z,27.50
2018-09-19T15:47:33.962Z,27.40
2018-09-19T15:50:02.593Z,27.30
2018-09-19T15:52:31.116Z,27.10
2018-09-19T15:54:59.676Z,27.00
2018-09-19T15:57:28.414Z,26.90
2018-09-19T15:59:56.894Z,26.80
2018-09-19T16:02:25.511Z,26.80
2018-09-19T16:04:54.026Z,26.60
2018-09-19T16:07:22.646Z,26.50
2018-09-19T16:09:51.210Z,26.40
2018-09-19T16:12:19.957Z,26.30
2018-09-19T16:14:48.465Z,26.20
2018-09-19T16:17:17.209Z,26.00
2018-09-19T16:19:45.742Z,25.90
2018-09-19T16:22:15.173Z,25.80
2018-09-19T16:24:43.721Z,25.70
2018-09-19T16:27:12.245Z,25.60
2018-09-19T16:29:40.806Z,25.50
2018-09-19T16:32:09.421Z,25.30
2018-09-19T16:34:37.929Z,25.20
2018-09-19T16:37:06.527Z,25.10
2018-09-19T16:39:35.095Z,25.00
2018-09-19T16:42:03.637Z,25.00
2018-09-19T16:44:32.228Z,24.90
2018-09-19T16:47:00.843Z,24.80
2018-09-19T16:49:29.417Z,24.70
2018-09-19T16:51:57.944Z,24.60
2018-09-19T16:54:26.509Z,24.40
2018-09-19T16:56:55.187Z,24.30
2018-09-19T16:59:23.765Z,24.10
2018-09-19T17:01:52.339Z,24.00
2018-09-19T17:04:21.716Z,23.80
2018-09-19T17:06:50.477Z,23.60
2018-09-19T17:09:19.086Z,23.50
2018-09-19T17:11:47.644Z,23.40
2018-09-19T17:14:16.195Z,23.20
2018-09-19T17:16:44.721Z,23.10
2018-09-19T17:19:13.234Z,23.00
2018-09-19T17:21:41.841Z,23.00
2018-09-19T17:24:10.362Z,22.90
2018-09-19T17:26:38.997Z,22.70
2018-09-19T17:29:07.658Z,22.50
2018-09-19T17:31:36.291Z,22.40
2018-09-19T17:34:04.848Z,22.30
2018-09-19T17:36:33.397Z,22.10
2018-09-19T17:39:01.943Z,21.90
2018-09-19T17:41:30.490Z,21.80
2018-09-19T17:43:59.025Z,21.70
2018-09-19T17:46:27.658Z,21.50
2018-09-19T17:48:56.281Z,21.40
2018-09-19T17:51:24.873Z,21.40
2018-09-19T17:53:53.472Z,21.40
2018-09-19T17:56:22.017Z,21.30
2018-09-19T17:58:50.606Z,21.30
2018-09-19T18:01:19.212Z,21.20
2018-09-19T18:03:47.828Z,21.10
2018-09-19T18:06:16.512Z,20.90
2018-09-19T18:08:45.037Z,20.80
2018-09-19T18:11:13.581Z,20.70
2018-09-19T18:13:42.140Z,20.60
2018-09-19T18:16:10.694Z,20.50
2018-09-19T18:18:39.288Z,20.40
2018-09-19T18:21:07.882Z,20.30
2018-09-19T18:23:36.472Z,20.20
2018-09-19T18:26:05.010Z,20.10
2018-09-19T18:28:33.650Z,20.00
2018-09-19T18:31:02.212Z,19.90
2018-09-19T18:33:30.855Z,19.90
2018-09-19T18:35:59.403Z,19.90
2018-09-19T18:38:27.961Z,19.70
